CheckWX is a tool to help pilots better visualize weather data.  It is not intended as a substitute for an official pre-flight weather briefing.

17:47:52 UTC

LFMO TAF
Orange-Caritat (BA 115) Air Base Airport
Orange/Caritat, France
TAF LFMO 271400Z 2715/2815 VRB02KT 9999 BKN030 TEMPO 2718/2721 4000 RA PROB30 TEMPO 2806/2808 4000 BR BKN005 BECMG 2809/2811 21012KT

Jan-27@
15:00 UTC

Jan-27 @ 15:00 UTC

Jan-28@
09:00 UTC

Jan-28 @ 09:00 UTC

TAF LFMO 271400Z 2715/2815 VRB02KT 9999 BKN030
Wind
  • Variable at 2 KTS
Cloud Levels
  • Broken at 3,000' AGL

Jan-27@
18:00 UTC

Jan-27 @ 18:00 UTC

Jan-27@
21:00 UTC

Jan-27 @ 21:00 UTC

TEMPO 2718/2721 4000 RA

Temporary

Temporary Changes expected for less than half the time period

Conditions
Rain

Jan-28@
06:00 UTC

Jan-28 @ 06:00 UTC

Jan-28@
08:00 UTC

Jan-28 @ 08:00 UTC

PROB30 TEMPO 2806/2808 4000 BR BKN005

Temporary - 30% Likelihood

Temporary - 30% Likelihood during this time.

Conditions
Mist
Cloud Levels
  • Broken at 500' AGL

Jan-28@
09:00 UTC

Jan-28 @ 09:00 UTC

Jan-28@
15:00 UTC

Jan-28 @ 15:00 UTC

BECMG 2809/2811 21012KT

Becoming

Becoming Conditions expected by Tue, Jan 28, 2020 @ 11:00 UTC

Wind
  • 210° at 12 KTS
Cloud Levels
  • Broken at 3,000' AGL